createdAt,value
2022-11-05T00:00:50.583Z,66.62
2022-11-05T00:03:38.666Z,66.38
2022-11-05T00:06:30.722Z,66.56
2022-11-05T00:09:20.977Z,66.99
2022-11-05T00:12:10.053Z,66.62
2022-11-05T00:15:00.909Z,66.11
2022-11-05T00:17:35.589Z,66.34
2022-11-05T00:20:16.181Z,65.97
2022-11-05T00:23:06.238Z,66.85
2022-11-05T00:25:37.994Z,66.74
2022-11-05T00:28:05.920Z,67.16
2022-11-05T00:30:40.968Z,68.00
2022-11-05T00:33:10.481Z,68.99
2022-11-05T00:35:42.722Z,69.86
2022-11-05T00:38:13.790Z,68.77
2022-11-05T00:40:44.782Z,67.62
2022-11-05T00:43:51.723Z,69.25
2022-11-05T00:46:23.726Z,68.50
2022-11-05T00:49:29.815Z,67.75
2022-11-05T00:52:18.679Z,67.01
2022-11-05T00:54:47.063Z,66.93
2022-11-05T00:57:18.371Z,67.61
2022-11-05T00:59:47.460Z,69.38
2022-11-05T01:02:22.155Z,69.46
2022-11-05T01:04:52.103Z,67.52
2022-11-05T01:07:21.716Z,67.25
2022-11-05T01:09:59.573Z,68.30
2022-11-05T01:12:29.621Z,68.25
2022-11-05T01:14:59.680Z,68.38
2022-11-05T01:17:28.489Z,67.48
2022-11-05T01:19:59.712Z,66.46
2022-11-05T01:22:31.010Z,66.33
2022-11-05T01:25:05.491Z,65.88
2022-11-05T01:27:40.428Z,66.12
2022-11-05T01:30:13.780Z,65.50
2022-11-05T01:32:44.696Z,66.79
2022-11-05T01:35:16.609Z,65.60
2022-11-05T01:37:51.797Z,66.05
2022-11-05T01:40:25.450Z,65.78
2022-11-05T01:42:54.485Z,64.75
2022-11-05T01:45:32.011Z,65.22
2022-11-05T01:48:05.435Z,64.45
2022-11-05T01:50:54.596Z,64.33
2022-11-05T01:53:38.375Z,64.88
2022-11-05T01:56:16.417Z,65.21
2022-11-05T01:59:14.937Z,65.35
2022-11-05T02:02:11.539Z,64.91
2022-11-05T02:04:58.279Z,65.30
2022-11-05T02:07:32.492Z,65.08
2022-11-05T02:10:07.798Z,65.11
2022-11-05T02:12:56.142Z,65.03
2022-11-05T02:16:08.968Z,65.56
2022-11-05T02:19:18.850Z,65.50
2022-11-05T02:22:15.372Z,65.42
2022-11-05T02:25:25.870Z,65.56
2022-11-05T02:28:01.511Z,65.59
2022-11-05T02:30:54.656Z,66.88
2022-11-05T02:33:35.813Z,68.79
2022-11-05T02:36:40.405Z,67.72
2022-11-05T02:39:52.300Z,66.08
2022-11-05T02:42:52.400Z,66.33
2022-11-05T02:45:23.306Z,65.86
2022-11-05T02:48:20.738Z,66.63
2022-11-05T02:51:17.451Z,66.45
2022-11-05T02:54:07.516Z,67.46
2022-11-05T02:56:42.953Z,67.07
2022-11-05T02:59:14.953Z,68.63
2022-11-05T03:01:47.114Z,67.82
2022-11-05T03:04:21.002Z,67.55
2022-11-05T03:07:08.872Z,67.93
2022-11-05T03:10:05.524Z,67.82
2022-11-05T03:13:30.958Z,68.11
2022-11-05T03:16:12.264Z,68.81
2022-11-05T03:19:14.672Z,68.58
2022-11-05T03:21:54.634Z,67.76
2022-11-05T03:24:37.534Z,67.94
2022-11-05T03:27:17.483Z,67.12
2022-11-05T03:29:55.133Z,67.15
2022-11-05T03:32:28.108Z,69.22
2022-11-05T03:35:25.484Z,70.34
2022-11-05T03:38:01.033Z,70.18
2022-11-05T03:40:35.925Z,71.06
2022-11-05T03:43:10.729Z,71.15
2022-11-05T03:46:07.703Z,70.96
2022-11-05T03:48:46.693Z,72.10
2022-11-05T03:51:22.101Z,71.75
2022-11-05T03:53:58.995Z,71.77
2022-11-05T03:57:23.965Z,72.47
2022-11-05T04:00:22.703Z,73.68
2022-11-05T04:03:36.718Z,74.93
2022-11-05T04:06:43.306Z,75.51
2022-11-05T04:09:50.532Z,75.83
2022-11-05T04:12:39.136Z,77.19
2022-11-05T04:15:08.145Z,79.21
2022-11-05T04:17:59.032Z,78.25
2022-11-05T04:20:49.380Z,78.43
2022-11-05T04:23:36.106Z,77.56
2022-11-05T04:26:04.165Z,77.69
2022-11-05T04:28:51.968Z,78.34
2022-11-05T04:31:20.256Z,79.58
2022-11-05T04:33:47.881Z,79.74
2022-11-05T04:36:15.507Z,80.36
2022-11-05T04:38:43.615Z,80.79
2022-11-05T04:41:16.659Z,80.06
2022-11-05T04:43:44.901Z,80.27
2022-11-05T04:46:12.851Z,82.24
2022-11-05T04:48:40.598Z,80.56
2022-11-05T04:51:08.844Z,80.60
2022-11-05T04:53:36.701Z,80.43
2022-11-05T04:56:19.633Z,80.25
2022-11-05T04:58:48.315Z,80.93
2022-11-05T05:01:21.773Z,80.18
2022-11-05T05:03:51.731Z,81.74
2022-11-05T05:06:19.399Z,81.60
2022-11-05T05:08:48.958Z,80.77
2022-11-05T05:11:19.620Z,82.11
2022-11-05T05:13:48.136Z,81.42
2022-11-05T05:16:21.149Z,81.48
2022-11-05T05:18:49.784Z,80.43
2022-11-05T05:21:37.899Z,80.91
2022-11-05T05:24:12.438Z,80.25
2022-11-05T05:26:46.251Z,81.51
2022-11-05T05:29:14.772Z,81.28
2022-11-05T05:31:42.984Z,82.12
2022-11-05T05:34:12.942Z,80.13
2022-11-05T05:36:41.202Z,79.86
2022-11-05T05:39:11.138Z,79.43
2022-11-05T05:41:38.977Z,81.27
2022-11-05T05:44:07.233Z,80.34
2022-11-05T05:46:35.066Z,80.06
2022-11-05T05:49:05.501Z,79.69
2022-11-05T05:51:37.436Z,79.82
2022-11-05T05:54:05.780Z,81.23
2022-11-05T05:56:33.465Z,81.75
2022-11-05T05:59:02.021Z,80.44
2022-11-05T06:01:29.751Z,79.60
2022-11-05T06:03:57.731Z,79.08
2022-11-05T06:06:25.697Z,78.78
2022-11-05T06:08:55.225Z,79.01
2022-11-05T06:11:24.630Z,80.03
2022-11-05T06:13:52.426Z,80.47
2022-11-05T06:16:20.527Z,80.12
2022-11-05T06:18:49.557Z,80.94
2022-11-05T06:21:18.219Z,80.72
2022-11-05T06:23:48.848Z,80.56
2022-11-05T06:26:19.222Z,80.86
2022-11-05T06:28:47.118Z,81.70
2022-11-05T06:31:22.340Z,81.21
2022-11-05T06:34:00.246Z,81.27
2022-11-05T06:36:27.810Z,83.17
2022-11-05T06:38:55.628Z,82.61
2022-11-05T06:41:23.894Z,83.54
2022-11-05T06:43:51.656Z,83.08
2022-11-05T06:46:19.786Z,82.54
2022-11-05T06:48:48.644Z,82.39
2022-11-05T06:51:16.369Z,82.99
2022-11-05T06:53:43.974Z,83.47
2022-11-05T06:56:11.955Z,83.70
2022-11-05T06:58:39.531Z,83.98
2022-11-05T07:01:09.387Z,84.06
2022-11-05T07:03:38.703Z,83.85
2022-11-05T07:06:07.335Z,84.00
2022-11-05T07:08:36.403Z,84.32
2022-11-05T07:11:04.747Z,84.96
2022-11-05T07:13:33.441Z,84.82
2022-11-05T07:16:01.172Z,84.16
2022-11-05T07:18:29.166Z,84.95
2022-11-05T07:20:56.933Z,84.83
2022-11-05T07:23:24.790Z,84.43
2022-11-05T07:25:52.726Z,84.66
2022-11-05T07:28:20.449Z,84.69
2022-11-05T07:30:48.413Z,84.69
2022-11-05T07:33:16.781Z,85.00
2022-11-05T07:35:44.413Z,85.40
2022-11-05T07:38:12.114Z,85.36
2022-11-05T07:40:41.842Z,85.72
2022-11-05T07:43:44.527Z,86.36
2022-11-05T07:56:54.318Z,87.66
2022-11-05T08:00:42.602Z,87.35
2022-11-05T08:03:15.035Z,88.09
2022-11-05T08:06:02.867Z,88.53
2022-11-05T08:08:31.277Z,88.07
2022-11-05T08:11:06.761Z,87.96
2022-11-05T08:13:34.769Z,88.11
2022-11-05T08:16:03.157Z,89.05
2022-11-05T08:18:32.528Z,88.94
2022-11-05T08:21:03.158Z,86.90
2022-11-05T08:23:32.065Z,86.40
2022-11-05T08:26:03.737Z,85.88
2022-11-05T08:28:31.865Z,85.63
2022-11-05T08:30:59.821Z,85.42
2022-11-05T08:33:28.072Z,84.59
2022-11-05T08:35:55.724Z,84.20
2022-11-05T08:38:23.779Z,83.46
2022-11-05T08:40:56.528Z,84.34
2022-11-05T08:43:24.802Z,84.11
2022-11-05T08:45:52.717Z,84.64
2022-11-05T08:48:20.597Z,84.63
2022-11-05T08:50:49.449Z,84.62
2022-11-05T08:53:17.270Z,84.57
2022-11-05T08:55:46.696Z,83.50
2022-11-05T08:58:17.130Z,84.04
2022-11-05T09:00:47.622Z,84.29
2022-11-05T09:03:16.533Z,85.26
2022-11-05T09:05:44.448Z,85.10
2022-11-05T09:08:14.829Z,84.62
2022-11-05T09:10:43.673Z,85.23
2022-11-05T09:13:17.778Z,84.69
2022-11-05T09:15:50.261Z,85.05
2022-11-05T09:18:19.209Z,86.11
2022-11-05T09:20:47.789Z,87.93
2022-11-05T09:23:15.677Z,86.22
2022-11-05T09:25:43.885Z,84.45
2022-11-05T09:28:17.446Z,83.49
2022-11-05T09:30:48.134Z,83.33
2022-11-05T09:33:19.572Z,82.09
2022-11-05T09:35:48.374Z,82.49
2022-11-05T09:38:16.981Z,83.43
2022-11-05T09:41:02.115Z,82.95
2022-11-05T09:44:00.630Z,81.84
2022-11-05T09:46:54.971Z,83.20
2022-11-05T09:49:52.149Z,81.85
2022-11-05T09:52:23.909Z,82.39
2022-11-05T09:54:54.347Z,82.31
2022-11-05T09:57:42.074Z,83.38
2022-11-05T10:00:16.842Z,82.25
2022-11-05T10:02:54.971Z,82.82
2022-11-05T10:05:25.517Z,83.46
2022-11-05T10:07:58.719Z,81.80
2022-11-05T10:10:43.346Z,81.85
2022-11-05T10:13:23.565Z,81.64
2022-11-05T10:16:02.837Z,81.15
2022-11-05T10:18:33.142Z,80.08
2022-11-05T10:21:01.335Z,80.50
2022-11-05T10:23:29.704Z,80.05
2022-11-05T10:26:05.440Z,77.91
2022-11-05T10:28:34.274Z,78.98
2022-11-05T10:31:09.970Z,78.94
2022-11-05T10:33:45.361Z,77.40
2022-11-05T10:36:21.340Z,77.14
2022-11-05T10:38:50.010Z,77.15
2022-11-05T10:41:47.219Z,76.00
2022-11-05T10:44:23.947Z,77.93
2022-11-05T10:47:20.873Z,77.51
2022-11-05T10:49:54.796Z,76.86
2022-11-05T10:52:39.147Z,76.00
2022-11-05T10:55:17.618Z,76.12
2022-11-05T10:57:48.190Z,74.87
2022-11-05T11:00:19.247Z,75.64
2022-11-05T11:03:01.553Z,77.26
2022-11-05T11:05:38.166Z,76.25
2022-11-05T11:08:10.747Z,75.62
2022-11-05T11:10:51.852Z,75.50
2022-11-05T11:13:29.338Z,77.26
2022-11-05T11:16:16.062Z,77.26
2022-11-05T11:18:44.256Z,77.81
2022-11-05T11:21:19.655Z,77.62
2022-11-05T11:24:04.949Z,79.16
2022-11-05T11:26:36.528Z,79.54
2022-11-05T11:29:16.381Z,77.72
2022-11-05T11:31:44.228Z,77.18
2022-11-05T11:34:14.986Z,78.03
2022-11-05T11:36:48.500Z,77.82
2022-11-05T11:39:24.765Z,76.92
2022-11-05T11:41:55.553Z,77.87
2022-11-05T11:44:27.140Z,77.73
2022-11-05T11:47:05.042Z,77.39
2022-11-05T11:49:42.151Z,77.23
2022-11-05T11:52:14.600Z,77.51
2022-11-05T11:54:42.927Z,77.51
2022-11-05T11:57:23.983Z,77.88
2022-11-05T12:00:08.294Z,78.28
2022-11-05T12:03:04.189Z,77.84
2022-11-05T12:05:37.708Z,76.73
2022-11-05T12:08:14.367Z,77.12
2022-11-05T12:10:54.422Z,75.34
2022-11-05T12:13:28.583Z,77.07
2022-11-05T12:16:19.466Z,76.82
2022-11-05T12:19:00.279Z,75.11
2022-11-05T12:22:11.461Z,74.37
2022-11-05T12:25:21.521Z,74.50
2022-11-05T12:27:55.226Z,75.17
2022-11-05T12:30:23.496Z,75.18
2022-11-05T12:33:20.687Z,74.55
2022-11-05T12:36:02.774Z,74.16
2022-11-05T12:38:47.487Z,73.74
2022-11-05T12:41:27.257Z,73.18
2022-11-05T12:44:10.224Z,74.34
2022-11-05T12:46:54.047Z,74.66
2022-11-05T12:49:36.320Z,73.11
2022-11-05T12:52:12.839Z,73.39
2022-11-05T12:55:01.092Z,73.39
2022-11-05T12:57:32.219Z,73.98
2022-11-05T13:00:16.639Z,74.97
2022-11-05T13:03:20.258Z,74.39
2022-11-05T13:06:17.778Z,74.10
2022-11-05T13:09:02.155Z,72.43
2022-11-05T13:11:54.909Z,74.37
2022-11-05T13:14:31.191Z,73.32
2022-11-05T13:17:03.462Z,73.10
2022-11-05T13:19:48.881Z,74.02
2022-11-05T13:22:20.322Z,73.74
2022-11-05T13:24:57.273Z,74.33
2022-11-05T13:27:30.990Z,74.14
2022-11-05T13:30:07.550Z,74.47
2022-11-05T13:32:39.406Z,74.07
2022-11-05T13:35:16.159Z,73.83
2022-11-05T13:38:07.503Z,74.52
2022-11-05T13:40:37.957Z,75.09
2022-11-05T13:43:23.309Z,75.40
2022-11-05T13:46:05.431Z,74.45
2022-11-05T13:49:25.728Z,74.74
2022-11-05T13:52:24.455Z,75.52
2022-11-05T13:55:20.136Z,74.89
2022-11-05T13:58:00.644Z,74.32
2022-11-05T14:00:34.196Z,75.47
2022-11-05T14:03:17.268Z,74.59
2022-11-05T14:05:57.073Z,74.88
2022-11-05T14:08:29.954Z,73.58
2022-11-05T14:11:14.881Z,75.50
2022-11-05T14:13:46.729Z,74.43
2022-11-05T14:16:22.432Z,75.81
2022-11-05T14:19:33.299Z,75.69
2022-11-05T14:22:33.461Z,76.19
2022-11-05T14:25:22.705Z,76.10
2022-11-05T14:27:52.838Z,75.99
2022-11-05T14:30:49.910Z,76.23
2022-11-05T14:33:27.400Z,76.42
2022-11-05T14:36:20.651Z,76.57
2022-11-05T14:39:00.046Z,76.57
2022-11-05T14:41:32.271Z,77.05
2022-11-05T14:44:05.689Z,77.08
2022-11-05T14:46:44.749Z,76.97
2022-11-05T14:49:20.949Z,77.26
2022-11-05T14:51:52.690Z,75.04
2022-11-05T14:54:53.935Z,73.76
2022-11-05T14:57:42.025Z,74.82
2022-11-05T15:00:31.619Z,75.94
2022-11-05T15:03:25.504Z,76.18
2022-11-05T15:06:25.245Z,76.46
2022-11-05T15:09:05.680Z,76.75
2022-11-05T15:11:46.887Z,77.31
2022-11-05T15:14:19.249Z,77.06
2022-11-05T15:17:05.455Z,77.09
2022-11-05T15:19:37.649Z,77.50
2022-11-05T15:22:19.750Z,77.93
2022-11-05T15:24:49.682Z,77.30
2022-11-05T15:27:36.876Z,77.34
2022-11-05T15:31:24.915Z,77.89
2022-11-05T15:34:30.887Z,78.06
2022-11-05T15:37:26.949Z,78.08
2022-11-05T15:39:56.580Z,78.31
2022-11-05T15:42:27.444Z,78.96
2022-11-05T15:44:58.695Z,79.17
2022-11-05T15:47:55.384Z,78.26
2022-11-05T15:50:27.851Z,78.21
2022-11-05T15:56:36.881Z,78.63
2022-11-05T15:59:22.578Z,78.64
2022-11-05T16:02:19.513Z,79.67
2022-11-05T16:04:54.511Z,79.64
2022-11-05T16:07:28.936Z,79.72
2022-11-05T16:10:30.768Z,79.99
2022-11-05T16:13:42.251Z,79.80
2022-11-05T16:16:33.614Z,79.12
2022-11-05T16:19:02.968Z,80.45
2022-11-05T16:21:31.779Z,80.67
2022-11-05T16:24:01.514Z,81.37
2022-11-05T16:29:38.542Z,81.66
2022-11-05T16:32:16.631Z,81.53
2022-11-05T16:34:52.396Z,81.60
2022-11-05T16:37:24.545Z,80.92
2022-11-05T16:39:56.607Z,81.19
2022-11-05T16:42:24.848Z,81.28
2022-11-05T16:44:55.829Z,81.25
2022-11-05T16:47:26.122Z,81.18
2022-11-05T16:49:59.596Z,81.29
2022-11-05T16:52:30.126Z,81.62
2022-11-05T16:54:58.630Z,80.26
2022-11-05T16:57:32.274Z,80.39
2022-11-05T17:00:02.548Z,81.21
2022-11-05T17:02:32.149Z,80.53
2022-11-05T17:05:00.794Z,80.93
2022-11-05T17:07:29.190Z,81.50
2022-11-05T17:09:58.030Z,81.75
2022-11-05T17:12:29.850Z,81.20
2022-11-05T17:14:58.785Z,81.52
2022-11-05T17:17:29.047Z,81.58
2022-11-05T17:19:57.539Z,82.03
2022-11-05T17:22:27.491Z,81.97
2022-11-05T17:24:56.150Z,83.70
2022-11-05T17:27:24.201Z,84.17
2022-11-05T17:29:52.648Z,82.83
2022-11-05T17:32:20.626Z,82.75
2022-11-05T17:34:48.782Z,82.72
2022-11-05T17:37:17.384Z,82.72
2022-11-05T17:39:46.492Z,84.06
2022-11-05T17:42:14.649Z,83.62
2022-11-05T17:44:43.631Z,83.31
2022-11-05T17:47:11.482Z,82.27
2022-11-05T17:49:39.721Z,84.17
2022-11-05T17:52:09.700Z,85.45
2022-11-05T17:54:38.385Z,85.86
2022-11-05T17:57:07.709Z,85.07
2022-11-05T17:59:36.361Z,85.83
2022-11-05T18:02:04.785Z,85.42
2022-11-05T18:04:33.465Z,84.81
2022-11-05T18:07:01.520Z,85.08
2022-11-05T18:09:29.867Z,86.30
2022-11-05T18:11:59.069Z,85.74
2022-11-05T18:14:27.321Z,86.52
2022-11-05T18:17:00.162Z,87.45
2022-11-05T18:19:29.786Z,86.41
2022-11-05T18:21:58.001Z,85.43
2022-11-05T18:24:25.881Z,85.37
2022-11-05T18:26:54.669Z,87.01
2022-11-05T18:29:22.561Z,83.34
2022-11-05T18:31:51.490Z,84.86
2022-11-05T18:34:19.826Z,85.26
2022-11-05T18:36:53.489Z,83.78
2022-11-05T18:39:24.985Z,83.11
2022-11-05T18:41:52.911Z,82.58
2022-11-05T18:44:22.993Z,83.15
2022-11-05T18:46:57.965Z,85.80
2022-11-05T18:49:27.467Z,85.76
2022-11-05T18:51:55.713Z,85.26
2022-11-05T18:54:24.159Z,85.96
2022-11-05T18:56:52.080Z,84.60
2022-11-05T18:59:39.004Z,84.49
2022-11-05T19:02:08.909Z,85.03
2022-11-05T19:04:37.828Z,83.23
2022-11-05T19:07:07.510Z,82.51
2022-11-05T19:09:36.261Z,83.55
2022-11-05T19:12:07.436Z,82.50
2022-11-05T19:14:35.781Z,83.54
2022-11-05T19:17:06.912Z,83.66
2022-11-05T19:19:35.182Z,81.39
2022-11-05T19:22:04.539Z,81.54
2022-11-05T19:24:32.268Z,80.38
2022-11-05T19:27:00.643Z,81.66
2022-11-05T19:29:29.057Z,81.37
2022-11-05T19:31:57.089Z,79.83
2022-11-05T19:34:25.889Z,81.56
2022-11-05T19:36:56.593Z,82.19
2022-11-05T19:39:26.092Z,81.86
2022-11-05T19:41:58.920Z,80.91
2022-11-05T19:44:31.893Z,82.04
2022-11-05T19:47:00.061Z,81.92
2022-11-05T19:49:28.578Z,82.39
2022-11-05T19:51:57.251Z,82.14
2022-11-05T19:54:25.381Z,82.44
2022-11-05T19:56:53.819Z,81.21
2022-11-05T19:59:22.060Z,82.31
2022-11-05T20:01:50.538Z,84.11
2022-11-05T20:04:20.986Z,80.89
2022-11-05T20:06:50.227Z,82.70
2022-11-05T20:09:22.921Z,81.75
2022-11-05T20:11:54.895Z,80.71
2022-11-05T20:14:24.376Z,79.61
2022-11-05T20:16:54.338Z,80.55
2022-11-05T20:19:23.437Z,82.99
2022-11-05T20:21:52.366Z,80.82
2022-11-05T20:24:25.047Z,82.04
2022-11-05T20:27:11.852Z,81.33
2022-11-05T20:29:50.798Z,80.33
2022-11-05T20:32:20.054Z,81.50
2022-11-05T20:34:48.593Z,82.14
2022-11-05T20:37:17.451Z,81.22
2022-11-05T20:39:46.513Z,81.63
2022-11-05T20:42:14.920Z,81.59
2022-11-05T20:44:43.543Z,81.91
2022-11-05T20:47:11.824Z,81.36
2022-11-05T20:49:40.150Z,80.50
2022-11-05T20:52:17.504Z,81.31
2022-11-05T20:54:46.712Z,82.79
2022-11-05T20:57:15.075Z,83.61
2022-11-05T20:59:42.943Z,81.32
2022-11-05T21:02:13.015Z,80.62
2022-11-05T21:04:41.246Z,80.53
2022-11-05T21:07:09.559Z,79.96
2022-11-05T21:09:38.363Z,81.54
2022-11-05T21:12:26.998Z,80.08
2022-11-05T21:15:01.674Z,78.42
2022-11-05T21:17:31.748Z,78.31
2022-11-05T21:20:06.523Z,79.63
2022-11-05T21:22:35.873Z,78.85
2022-11-05T21:25:05.222Z,78.90
2022-11-05T21:27:53.214Z,79.51
2022-11-05T21:30:26.426Z,79.73
2022-11-05T21:33:15.843Z,79.13
2022-11-05T21:35:47.305Z,79.87
2022-11-05T21:38:17.358Z,78.54
2022-11-05T21:40:45.749Z,79.01
2022-11-05T21:43:14.944Z,80.41
2022-11-05T21:45:45.367Z,79.23
2022-11-05T21:48:15.267Z,78.97
2022-11-05T21:51:02.487Z,78.70
2022-11-05T21:53:49.616Z,77.98
2022-11-05T21:56:43.446Z,78.55
2022-11-05T21:59:34.315Z,78.60
2022-11-05T22:02:24.147Z,78.66
2022-11-05T22:04:53.793Z,81.17
2022-11-05T22:07:24.072Z,80.20
2022-11-05T22:09:52.737Z,79.04
2022-11-05T22:12:21.925Z,79.46
2022-11-05T22:15:09.997Z,81.24
2022-11-05T22:17:42.559Z,80.41
2022-11-05T22:20:14.014Z,82.00
2022-11-05T22:23:07.363Z,81.40
2022-11-05T22:25:38.731Z,79.39
2022-11-05T22:28:08.221Z,79.10
2022-11-05T22:30:36.735Z,79.21
2022-11-05T22:33:04.738Z,80.49
2022-11-05T22:35:34.910Z,78.70
2022-11-05T22:38:03.465Z,81.71
2022-11-05T22:41:00.454Z,80.27
2022-11-05T22:43:28.457Z,80.98
2022-11-05T22:46:03.208Z,79.37
2022-11-05T22:48:51.520Z,78.07
2022-11-05T22:51:26.986Z,78.96
2022-11-05T22:53:55.237Z,79.14
2022-11-05T22:56:28.514Z,77.34
2022-11-05T22:58:57.334Z,77.65
2022-11-05T23:01:26.356Z,79.81
2022-11-05T23:03:56.667Z,79.65
2022-11-05T23:06:47.253Z,79.74
2022-11-05T23:09:52.770Z,77.97
2022-11-05T23:12:31.103Z,77.81
2022-11-05T23:15:00.789Z,77.92
2022-11-05T23:18:09.578Z,79.16
2022-11-05T23:20:59.910Z,79.12
2022-11-05T23:23:48.589Z,79.45
2022-11-05T23:26:35.031Z,78.82
2022-11-05T23:29:07.105Z,77.12
2022-11-05T23:31:53.957Z,78.45
2022-11-05T23:34:28.044Z,79.22
2022-11-05T23:37:16.922Z,77.86
2022-11-05T23:39:47.241Z,79.95
2022-11-05T23:42:34.220Z,79.48
2022-11-05T23:45:24.647Z,80.45
2022-11-05T23:48:12.000Z,78.02
2022-11-05T23:50:41.514Z,79.43
2022-11-05T23:53:31.413Z,78.91
2022-11-05T23:56:07.135Z,78.47
2022-11-05T23:58:37.036Z,76.59
